createdAt,value
2022-08-30T00:01:05.925Z,4.35
2022-08-30T00:03:37.986Z,3.95
2022-08-30T00:06:09.655Z,4.95
2022-08-30T00:08:37.353Z,4.10
2022-08-30T00:11:06.408Z,4.40
2022-08-30T00:13:33.050Z,3.83
2022-08-30T00:15:59.664Z,4.57
2022-08-30T00:18:26.377Z,4.47
2022-08-30T00:20:53.061Z,3.83
2022-08-30T00:23:20.100Z,4.15
2022-08-30T00:25:46.748Z,4.40
2022-08-30T00:28:15.095Z,4.00
2022-08-30T00:30:42.019Z,4.22
2022-08-30T00:33:10.027Z,3.80
2022-08-30T00:35:38.676Z,4.25
2022-08-30T00:38:06.356Z,4.07
2022-08-30T00:40:33.602Z,3.78
2022-08-30T00:43:14.170Z,3.92
2022-08-30T00:45:41.767Z,4.17
2022-08-30T00:48:09.057Z,3.80
2022-08-30T00:50:43.354Z,3.38
2022-08-30T00:53:16.332Z,3.83
2022-08-30T00:55:44.348Z,3.88
2022-08-30T00:58:16.865Z,3.70
2022-08-30T01:00:45.131Z,3.75
2022-08-30T01:03:11.754Z,3.78
2022-08-30T01:05:39.716Z,3.65
2022-08-30T01:08:06.905Z,4.53
2022-08-30T01:10:35.478Z,2.90
2022-08-30T01:13:02.532Z,4.22
2022-08-30T01:15:30.435Z,3.50
2022-08-30T01:17:57.161Z,3.40
2022-08-30T01:20:38.340Z,3.42
2022-08-30T01:23:10.314Z,3.10
2022-08-30T01:25:38.089Z,3.50
2022-08-30T01:28:10.026Z,3.67
2022-08-30T01:30:40.136Z,3.55
2022-08-30T01:33:08.050Z,3.50
2022-08-30T01:35:53.341Z,3.40
2022-08-30T01:38:23.568Z,3.00
2022-08-30T01:40:50.898Z,3.90
2022-08-30T01:43:19.426Z,3.58
2022-08-30T01:45:46.026Z,4.10
2022-08-30T01:48:13.010Z,3.77
2022-08-30T01:50:41.553Z,3.13
2022-08-30T01:53:13.277Z,4.22
2022-08-30T01:55:40.405Z,3.92
2022-08-30T01:58:07.225Z,3.95
2022-08-30T02:00:33.955Z,3.43
2022-08-30T02:03:00.575Z,3.50
2022-08-30T02:05:27.499Z,4.13
2022-08-30T02:07:54.301Z,3.22
2022-08-30T02:10:21.085Z,3.42
2022-08-30T02:12:47.684Z,3.60
2022-08-30T02:15:14.698Z,3.70
2022-08-30T02:17:42.468Z,4.18
2022-08-30T02:20:10.568Z,3.55
2022-08-30T02:22:38.257Z,3.60
2022-08-30T02:25:07.394Z,3.50
2022-08-30T02:27:47.895Z,3.60
2022-08-30T02:30:14.793Z,3.72
2022-08-30T02:32:41.624Z,3.38
2022-08-30T02:35:08.753Z,3.67
2022-08-30T02:37:35.519Z,4.00
2022-08-30T02:40:02.453Z,3.78
2022-08-30T02:42:29.543Z,3.80
2022-08-30T02:44:56.844Z,4.10
2022-08-30T02:47:23.393Z,4.28
2022-08-30T02:49:50.138Z,3.37
2022-08-30T02:52:16.925Z,3.70
2022-08-30T02:54:43.576Z,3.78
2022-08-30T02:57:19.938Z,3.92
2022-08-30T02:59:48.050Z,4.07
2022-08-30T03:02:15.285Z,3.87
2022-08-30T03:04:44.440Z,3.85
2022-08-30T03:07:12.775Z,4.25
2022-08-30T03:09:40.137Z,4.60
2022-08-30T03:12:07.846Z,4.80
2022-08-30T03:14:36.532Z,4.77
2022-08-30T03:17:05.580Z,4.65
2022-08-30T03:19:32.575Z,4.50
2022-08-30T03:21:59.278Z,4.88
2022-08-30T03:24:26.219Z,4.63
2022-08-30T03:26:53.495Z,4.70
2022-08-30T03:29:20.077Z,4.75
2022-08-30T03:31:53.243Z,4.20
2022-08-30T03:34:21.926Z,4.90
2022-08-30T03:36:49.462Z,3.83
2022-08-30T03:39:16.224Z,4.50
2022-08-30T03:41:42.769Z,4.57
2022-08-30T03:44:09.430Z,4.60
2022-08-30T03:46:37.568Z,5.10
2022-08-30T03:49:05.247Z,5.00
2022-08-30T03:51:32.697Z,5.10
2022-08-30T03:53:59.935Z,5.15
2022-08-30T03:56:27.081Z,5.00
2022-08-30T03:58:53.783Z,4.95
2022-08-30T04:01:20.558Z,5.50
2022-08-30T04:03:47.131Z,5.73
2022-08-30T04:06:13.924Z,5.57
2022-08-30T04:08:40.638Z,5.30
2022-08-30T04:11:07.335Z,5.13
2022-08-30T04:13:34.553Z,5.25
2022-08-30T04:16:01.364Z,5.07
2022-08-30T04:18:28.116Z,5.90
2022-08-30T04:20:54.669Z,5.82
2022-08-30T04:23:21.519Z,6.15
2022-08-30T04:25:48.399Z,6.22
2022-08-30T04:28:15.290Z,5.00
2022-08-30T04:30:43.912Z,5.53
2022-08-30T04:33:11.445Z,6.07
2022-08-30T04:35:42.573Z,5.82
2022-08-30T04:38:09.994Z,5.43
2022-08-30T04:40:37.075Z,5.57
2022-08-30T04:43:04.497Z,5.80
2022-08-30T04:45:31.161Z,6.10
2022-08-30T04:47:57.798Z,7.30
2022-08-30T04:50:24.540Z,6.38
2022-08-30T04:52:51.186Z,6.60
2022-08-30T04:55:20.194Z,6.13
2022-08-30T04:57:47.690Z,6.53
2022-08-30T05:00:15.056Z,6.70
2022-08-30T05:02:42.462Z,6.38
2022-08-30T05:05:39.796Z,6.63
2022-08-30T05:08:10.595Z,7.15
2022-08-30T05:10:45.856Z,6.43
2022-08-30T05:13:13.171Z,5.95
2022-08-30T05:15:40.400Z,6.10
2022-08-30T05:18:11.371Z,6.80
2022-08-30T05:20:41.730Z,6.90
2022-08-30T05:23:08.403Z,6.65
2022-08-30T05:25:40.948Z,7.20
2022-08-30T05:28:08.466Z,7.20
2022-08-30T05:30:36.769Z,6.47
2022-08-30T05:33:03.586Z,6.47
2022-08-30T05:35:30.225Z,7.40
2022-08-30T05:37:56.831Z,7.05
2022-08-30T05:40:23.569Z,7.18
2022-08-30T05:42:50.909Z,6.63
2022-08-30T05:45:17.820Z,6.72
2022-08-30T05:47:44.458Z,7.35
2022-08-30T05:50:11.214Z,6.25
2022-08-30T05:52:40.072Z,6.70
2022-08-30T05:55:08.261Z,6.50
2022-08-30T05:57:36.750Z,6.57
2022-08-30T06:00:10.539Z,5.57
2022-08-30T06:02:37.235Z,6.28
2022-08-30T06:05:05.168Z,6.18
2022-08-30T06:07:32.692Z,5.77
2022-08-30T06:09:59.443Z,6.35
2022-08-30T06:12:26.114Z,5.32
2022-08-30T06:14:53.593Z,6.25
2022-08-30T06:17:20.374Z,6.93
2022-08-30T06:19:46.925Z,5.53
2022-08-30T06:22:13.485Z,6.00
2022-08-30T06:24:56.846Z,5.95
2022-08-30T06:27:24.294Z,5.55
2022-08-30T06:29:52.434Z,5.68
2022-08-30T06:32:19.204Z,4.90
2022-08-30T06:34:45.795Z,4.95
2022-08-30T06:37:12.374Z,5.72
2022-08-30T06:39:57.657Z,5.32
2022-08-30T06:42:30.643Z,5.53
2022-08-30T06:44:58.302Z,5.07
2022-08-30T06:47:26.103Z,4.90
2022-08-30T06:49:52.763Z,5.53
2022-08-30T06:52:19.747Z,5.60
2022-08-30T06:54:46.420Z,5.35
2022-08-30T06:57:13.370Z,5.53
2022-08-30T06:59:40.422Z,5.47
2022-08-30T07:02:10.683Z,5.95
2022-08-30T07:04:38.784Z,5.63
2022-08-30T07:07:16.559Z,5.22
2022-08-30T07:09:44.857Z,5.13
2022-08-30T07:12:13.224Z,5.30
2022-08-30T07:14:43.047Z,5.07
2022-08-30T07:17:34.992Z,5.00
2022-08-30T07:22:56.785Z,5.03
2022-08-30T07:25:27.666Z,4.93
2022-08-30T07:27:59.939Z,5.95
2022-08-30T07:30:26.572Z,5.93
2022-08-30T07:32:58.282Z,5.50
2022-08-30T07:35:24.992Z,5.37
2022-08-30T07:37:55.088Z,5.93
2022-08-30T07:40:21.970Z,4.78
2022-08-30T07:42:48.715Z,5.78
2022-08-30T07:45:17.180Z,6.25
2022-08-30T07:47:43.924Z,5.90
2022-08-30T07:50:13.184Z,4.60
2022-08-30T07:52:39.806Z,5.18
2022-08-30T07:55:07.318Z,5.68
2022-08-30T07:57:37.225Z,5.53
2022-08-30T08:00:05.277Z,5.93
2022-08-30T08:02:32.957Z,4.95
2022-08-30T08:05:05.206Z,5.65
2022-08-30T08:07:33.215Z,5.63
2022-08-30T08:10:02.481Z,5.82
2022-08-30T08:12:30.089Z,5.13
2022-08-30T08:14:56.887Z,5.63
2022-08-30T08:17:23.786Z,5.45
2022-08-30T08:19:50.351Z,5.43
2022-08-30T08:22:21.321Z,5.65
2022-08-30T08:24:51.031Z,4.90
2022-08-30T08:27:17.763Z,5.05
2022-08-30T08:29:45.819Z,5.28
2022-08-30T08:32:12.391Z,5.43
2022-08-30T08:34:39.114Z,5.13
2022-08-30T08:37:29.403Z,4.67
2022-08-30T08:39:55.972Z,4.82
2022-08-30T08:42:28.750Z,5.32
2022-08-30T08:45:08.788Z,5.65
2022-08-30T08:48:08.430Z,5.45
2022-08-30T08:50:37.333Z,4.83
2022-08-30T08:53:46.501Z,5.72
2022-08-30T08:56:17.831Z,5.07
2022-08-30T08:58:47.564Z,5.47
2022-08-30T09:01:22.086Z,5.82
2022-08-30T09:03:53.505Z,4.77
2022-08-30T09:06:31.601Z,4.88
2022-08-30T09:09:02.346Z,4.95
2022-08-30T09:11:32.772Z,4.80
2022-08-30T09:14:00.159Z,4.45
2022-08-30T09:16:47.348Z,4.37
2022-08-30T09:19:34.387Z,4.95
2022-08-30T09:22:06.035Z,4.80
2022-08-30T09:25:01.659Z,4.82
2022-08-30T09:27:33.199Z,4.38
2022-08-30T09:30:23.082Z,4.43
2022-08-30T09:32:59.183Z,4.78
2022-08-30T09:35:34.710Z,4.32
2022-08-30T09:38:18.908Z,5.03
2022-08-30T09:40:51.353Z,4.57
2022-08-30T09:43:17.833Z,4.07
2022-08-30T09:45:49.697Z,4.32
2022-08-30T09:48:28.629Z,5.10
2022-08-30T09:51:11.899Z,5.30
2022-08-30T09:54:16.533Z,4.57
2022-08-30T09:56:56.646Z,4.90
2022-08-30T09:59:37.287Z,4.47
2022-08-30T10:02:28.835Z,4.28
2022-08-30T10:05:21.086Z,4.03
2022-08-30T10:07:56.843Z,3.70
2022-08-30T10:10:30.684Z,4.03
2022-08-30T10:13:27.270Z,3.88
2022-08-30T10:16:29.151Z,3.05
2022-08-30T10:19:24.025Z,3.40
2022-08-30T10:22:13.723Z,3.60
2022-08-30T10:24:46.924Z,3.67
2022-08-30T10:27:36.307Z,2.92
2022-08-30T10:30:08.009Z,3.50
2022-08-30T10:32:41.813Z,3.30
2022-08-30T10:35:19.306Z,3.13
2022-08-30T10:37:58.357Z,4.07
2022-08-30T10:40:56.490Z,3.22
2022-08-30T10:43:54.894Z,3.10
2022-08-30T10:46:36.494Z,2.80
2022-08-30T10:49:06.020Z,2.72
2022-08-30T10:52:06.730Z,3.27
2022-08-30T10:54:55.743Z,2.70
2022-08-30T10:57:22.510Z,2.97
2022-08-30T10:59:57.491Z,3.50
2022-08-30T11:02:48.749Z,3.28
2022-08-30T11:05:24.310Z,2.93
2022-08-30T11:08:20.277Z,2.70
2022-08-30T11:10:51.570Z,3.58
2022-08-30T11:13:23.010Z,3.22
2022-08-30T11:16:10.730Z,3.40
2022-08-30T11:19:12.419Z,2.90
2022-08-30T11:21:41.962Z,3.10
2022-08-30T11:24:23.174Z,3.55
2022-08-30T11:26:57.351Z,3.17
2022-08-30T11:29:39.888Z,2.80
2022-08-30T11:32:17.389Z,2.93
2022-08-30T11:34:46.778Z,3.58
2022-08-30T11:37:37.493Z,2.67
2022-08-30T11:40:14.161Z,2.53
2022-08-30T11:42:49.391Z,3.22
2022-08-30T11:45:26.887Z,2.00
2022-08-30T11:47:59.664Z,2.67
2022-08-30T11:50:51.073Z,2.80
2022-08-30T11:53:36.821Z,2.55
2022-08-30T11:56:22.578Z,3.08
2022-08-30T11:59:12.229Z,2.03
2022-08-30T12:01:51.040Z,2.28
2022-08-30T12:04:31.312Z,2.72
2022-08-30T12:07:05.636Z,2.10
2022-08-30T12:09:35.186Z,2.45
2022-08-30T12:12:05.885Z,2.20
2022-08-30T12:14:47.493Z,2.35
2022-08-30T12:17:48.593Z,2.60
2022-08-30T12:20:51.432Z,2.45
2022-08-30T12:23:44.522Z,2.75
2022-08-30T12:26:16.715Z,2.63
2022-08-30T12:28:49.151Z,2.88
2022-08-30T12:31:21.608Z,2.50
2022-08-30T12:33:55.678Z,2.72
2022-08-30T12:36:41.296Z,2.40
2022-08-30T12:39:19.086Z,2.23
2022-08-30T12:41:46.031Z,2.30
2022-08-30T12:44:20.413Z,2.72
2022-08-30T12:46:50.316Z,2.53
2022-08-30T12:49:19.345Z,2.28
2022-08-30T12:51:46.565Z,2.53
2022-08-30T12:54:23.127Z,2.15
2022-08-30T12:57:19.652Z,2.60
2022-08-30T12:59:59.579Z,2.40
2022-08-30T13:02:53.445Z,2.40
2022-08-30T13:05:45.600Z,2.13
2022-08-30T13:08:22.468Z,2.20
2022-08-30T13:11:12.197Z,2.30
2022-08-30T13:13:44.357Z,2.00
2022-08-30T13:16:24.841Z,2.10
2022-08-30T13:19:31.099Z,2.00
2022-08-30T13:21:59.585Z,2.15
2022-08-30T13:24:27.331Z,2.42
2022-08-30T13:27:02.763Z,2.22
2022-08-30T13:29:29.784Z,1.90
2022-08-30T13:31:57.364Z,2.17
2022-08-30T13:34:24.224Z,1.92
2022-08-30T13:36:58.839Z,2.47
2022-08-30T13:39:27.145Z,2.05
2022-08-30T13:41:54.881Z,2.20
2022-08-30T13:44:49.448Z,2.00
2022-08-30T13:47:34.591Z,1.98
2022-08-30T13:50:03.721Z,1.92
2022-08-30T13:52:31.695Z,2.05
2022-08-30T13:54:58.438Z,1.92
2022-08-30T14:00:19.377Z,1.95
2022-08-30T14:02:55.201Z,1.73
2022-08-30T14:05:50.988Z,1.70
2022-08-30T14:08:48.262Z,2.00
2022-08-30T14:11:20.929Z,2.17
2022-08-30T14:16:39.491Z,1.85
2022-08-30T14:19:07.432Z,1.77
2022-08-30T14:21:35.309Z,1.70
2022-08-30T14:24:05.685Z,1.40
2022-08-30T14:26:37.192Z,1.80
2022-08-30T14:29:09.117Z,2.10
2022-08-30T14:31:39.282Z,1.65
2022-08-30T14:34:06.877Z,1.73
2022-08-30T14:36:35.028Z,1.95
2022-08-30T14:39:03.301Z,2.10
2022-08-30T14:41:42.687Z,2.00
2022-08-30T14:44:11.225Z,1.90
2022-08-30T14:46:37.796Z,1.63
2022-08-30T14:49:04.392Z,2.33
2022-08-30T14:51:32.533Z,1.80
2022-08-30T14:54:00.789Z,1.50
2022-08-30T14:56:27.425Z,1.55
2022-08-30T14:59:01.181Z,1.77
2022-08-30T15:01:29.799Z,3.13
2022-08-30T15:03:56.805Z,1.70
2022-08-30T15:06:24.166Z,2.00
2022-08-30T15:08:53.589Z,1.55
2022-08-30T15:11:24.300Z,1.90
2022-08-30T15:13:52.867Z,1.63
2022-08-30T15:16:25.086Z,1.83
2022-08-30T15:18:52.580Z,1.80
2022-08-30T15:21:31.488Z,2.00
2022-08-30T15:23:59.201Z,1.63
2022-08-30T15:26:27.835Z,1.92
2022-08-30T15:28:55.420Z,1.60
2022-08-30T15:31:25.066Z,1.60
2022-08-30T15:33:51.690Z,1.90
2022-08-30T15:36:18.881Z,1.60
2022-08-30T15:38:45.965Z,1.80
2022-08-30T15:41:13.440Z,1.67
2022-08-30T15:43:43.250Z,1.85
2022-08-30T15:46:29.664Z,1.70
2022-08-30T15:49:01.287Z,1.77
2022-08-30T15:51:28.764Z,1.90
2022-08-30T15:54:01.236Z,2.00
2022-08-30T15:56:27.940Z,1.60
2022-08-30T15:58:54.815Z,1.50
2022-08-30T16:01:30.452Z,1.47
2022-08-30T16:03:58.758Z,1.75
2022-08-30T16:06:29.065Z,1.55
2022-08-30T16:08:56.865Z,1.67
2022-08-30T16:11:25.251Z,2.10
2022-08-30T16:13:56.724Z,1.87
2022-08-30T16:16:24.406Z,1.70
2022-08-30T16:18:54.421Z,2.27
2022-08-30T16:21:34.058Z,2.00
2022-08-30T16:24:02.358Z,2.00
2022-08-30T16:26:31.260Z,2.40
2022-08-30T16:28:58.881Z,2.33
2022-08-30T16:31:27.448Z,2.10
2022-08-30T16:34:02.558Z,1.60
2022-08-30T16:36:32.275Z,1.85
2022-08-30T16:38:59.022Z,1.80
2022-08-30T16:41:27.048Z,1.98
2022-08-30T16:43:54.723Z,1.90
2022-08-30T16:46:27.409Z,2.00
2022-08-30T16:48:57.350Z,1.95
2022-08-30T16:51:26.287Z,2.03
2022-08-30T16:54:03.302Z,2.83
2022-08-30T16:56:32.823Z,1.93
2022-08-30T16:59:02.966Z,2.10
2022-08-30T17:01:35.290Z,2.13
2022-08-30T17:04:05.333Z,1.70
2022-08-30T17:06:32.280Z,1.70
2022-08-30T17:09:02.122Z,1.67
2022-08-30T17:11:29.219Z,1.83
2022-08-30T17:13:55.819Z,2.05
2022-08-30T17:16:28.061Z,1.90
2022-08-30T17:18:59.591Z,1.50
2022-08-30T17:21:30.960Z,1.70
2022-08-30T17:24:03.177Z,1.70
2022-08-30T17:26:35.714Z,1.60
2022-08-30T17:29:07.774Z,2.45
2022-08-30T17:31:35.165Z,1.90
2022-08-30T17:34:04.202Z,1.50
2022-08-30T17:36:36.449Z,1.75
2022-08-30T17:39:11.800Z,1.60
2022-08-30T17:41:49.776Z,1.58
2022-08-30T17:44:29.678Z,1.88
2022-08-30T17:46:58.073Z,1.43
2022-08-30T17:49:31.259Z,3.05
2022-08-30T17:52:03.322Z,1.67
2022-08-30T17:54:33.621Z,1.77
2022-08-30T17:57:00.800Z,1.70
2022-08-30T17:59:31.672Z,1.90
2022-08-30T18:02:02.042Z,1.70
2022-08-30T18:04:29.176Z,1.90
2022-08-30T18:06:55.761Z,1.95
2022-08-30T18:09:25.713Z,1.58
2022-08-30T18:14:40.318Z,1.70
2022-08-30T18:17:07.450Z,1.55
2022-08-30T18:19:37.067Z,1.75
2022-08-30T18:22:13.362Z,1.80
2022-08-30T18:24:41.558Z,1.67
2022-08-30T18:27:10.002Z,1.57
2022-08-30T18:29:38.647Z,1.52
2022-08-30T18:32:05.733Z,1.50
2022-08-30T18:34:37.342Z,1.40
2022-08-30T18:37:05.136Z,1.52
2022-08-30T18:39:39.653Z,1.50
2022-08-30T18:42:10.897Z,1.65
2022-08-30T18:44:37.867Z,1.30
2022-08-30T18:47:06.449Z,1.52
2022-08-30T18:49:34.979Z,1.40
2022-08-30T18:52:08.934Z,1.80
2022-08-30T18:54:47.282Z,1.20
2022-08-30T18:57:19.905Z,1.52
2022-08-30T18:59:46.511Z,1.65
2022-08-30T19:02:15.247Z,1.42
2022-08-30T19:04:45.139Z,1.93
2022-08-30T19:07:16.933Z,1.60
2022-08-30T19:09:45.499Z,1.33
2022-08-30T19:12:14.626Z,1.55
2022-08-30T19:14:44.353Z,1.80
2022-08-30T19:17:11.203Z,1.57
2022-08-30T19:22:26.824Z,1.63
2022-08-30T19:24:57.220Z,1.40
2022-08-30T19:27:37.166Z,1.70
2022-08-30T19:30:18.611Z,1.60
2022-08-30T19:32:48.917Z,1.55
2022-08-30T19:35:16.446Z,1.92
2022-08-30T19:37:44.864Z,1.85
2022-08-30T19:40:20.105Z,1.20
2022-08-30T19:42:48.908Z,1.50
2022-08-30T19:45:18.464Z,1.52
2022-08-30T19:47:46.654Z,1.88
2022-08-30T19:50:13.971Z,1.63
2022-08-30T19:52:40.733Z,1.50
2022-08-30T19:55:09.563Z,1.47
2022-08-30T19:57:36.301Z,1.70
2022-08-30T20:00:06.343Z,1.60
2022-08-30T20:02:33.976Z,1.67
2022-08-30T20:05:00.950Z,1.90
2022-08-30T20:07:31.267Z,1.50
2022-08-30T20:10:00.370Z,1.80
2022-08-30T20:12:26.915Z,1.50
2022-08-30T20:14:53.573Z,2.15
2022-08-30T20:17:23.482Z,1.50
2022-08-30T20:19:50.007Z,1.70
2022-08-30T20:22:16.735Z,1.55
2022-08-30T20:24:26.953Z,1.80
2022-08-30T20:24:32.967Z,1.45
2022-08-30T20:24:43.758Z,1.60
2022-08-30T20:27:10.853Z,1.80
2022-08-30T20:29:38.135Z,1.70
2022-08-30T20:32:04.841Z,1.80
2022-08-30T20:34:31.434Z,1.80
2022-08-30T20:36:58.750Z,1.75
2022-08-30T20:39:25.383Z,1.67
2022-08-30T20:41:51.965Z,1.67
2022-08-30T20:44:19.045Z,1.30
2022-08-30T20:46:47.613Z,1.75
2022-08-30T20:49:14.308Z,1.83
2022-08-30T20:51:41.422Z,1.63
2022-08-30T20:54:08.491Z,1.80
2022-08-30T20:56:35.949Z,1.40
2022-08-30T20:59:03.853Z,1.60
2022-08-30T21:01:33.050Z,1.50
2022-08-30T21:03:59.836Z,1.63
2022-08-30T21:06:26.443Z,1.42
2022-08-30T21:08:53.056Z,1.83
2022-08-30T21:11:20.347Z,1.58
2022-08-30T21:13:48.548Z,1.30
2022-08-30T21:16:17.723Z,1.60
2022-08-30T21:18:48.792Z,1.60
2022-08-30T21:21:21.562Z,1.90
2022-08-30T21:23:53.743Z,1.65
2022-08-30T21:26:21.003Z,2.03
2022-08-30T21:28:52.259Z,2.10
2022-08-30T21:31:22.493Z,1.65
2022-08-30T21:33:51.284Z,2.00
2022-08-30T21:36:36.826Z,2.10
2022-08-30T21:39:04.860Z,1.80
2022-08-30T21:41:32.667Z,2.10
2022-08-30T21:44:04.824Z,2.28
2022-08-30T21:46:32.720Z,2.10
2022-08-30T21:49:01.536Z,2.35
2022-08-30T21:51:29.363Z,3.60
2022-08-30T21:53:58.061Z,12.60
2022-08-30T21:56:25.141Z,2.00
2022-08-30T21:58:51.971Z,3.27
2022-08-30T22:01:23.592Z,2.45
2022-08-30T22:03:52.722Z,2.50
2022-08-30T22:06:21.170Z,2.45
2022-08-30T22:08:52.178Z,2.47
2022-08-30T22:11:24.922Z,3.10
2022-08-30T22:13:53.126Z,3.13
2022-08-30T22:16:20.621Z,2.80
2022-08-30T22:18:47.682Z,2.60
2022-08-30T22:21:17.513Z,2.95
2022-08-30T22:23:45.084Z,3.30
2022-08-30T22:26:14.265Z,2.72
2022-08-30T22:28:41.216Z,2.97
2022-08-30T22:31:09.720Z,3.00
2022-08-30T22:33:37.392Z,3.25
2022-08-30T22:36:09.296Z,3.50
2022-08-30T22:38:36.288Z,3.70
2022-08-30T22:41:03.017Z,3.53
2022-08-30T22:43:29.886Z,3.35
2022-08-30T22:45:57.999Z,3.40
2022-08-30T22:48:24.657Z,3.23
2022-08-30T22:50:51.281Z,3.42
2022-08-30T22:53:19.324Z,3.58
2022-08-30T22:55:46.326Z,3.45
2022-08-30T22:58:13.002Z,3.75
2022-08-30T23:00:42.839Z,3.60
2022-08-30T23:03:21.684Z,3.45
2022-08-30T23:05:48.308Z,3.40
2022-08-30T23:08:14.858Z,3.13
2022-08-30T23:10:42.027Z,3.30
2022-08-30T23:13:08.635Z,2.90
2022-08-30T23:15:35.225Z,2.97
2022-08-30T23:18:01.803Z,3.13
2022-08-30T23:20:28.348Z,3.45
2022-08-30T23:23:00.663Z,3.47
2022-08-30T23:25:52.014Z,3.00
2022-08-30T23:28:39.898Z,3.13
2022-08-30T23:31:34.852Z,3.30
2022-08-30T23:34:21.897Z,3.08
2022-08-30T23:37:07.160Z,2.88
2022-08-30T23:39:53.464Z,3.23
2022-08-30T23:42:38.701Z,3.55
2022-08-30T23:45:24.357Z,3.20
2022-08-30T23:48:09.456Z,3.08
2022-08-30T23:50:54.453Z,3.50
2022-08-30T23:53:39.507Z,3.00
2022-08-30T23:56:30.736Z,2.97
2022-08-30T23:59:16.697Z,2.95
